Lencois, Brazil
Current Conditions -  °F | °C
As of 6:00 AM on Monday 24 Nov 2014 (Local Time) from SBQV Reporting Station
Scattered Clouds Scattered Clouds  
Wind Chill: 68°   Ceiling: Unl
Heat Index: 68°   Visibility: 6mi
Dew Point: 68°   Wind: 7mph
Humidity: 100%   Direction: 50°NE
Pressure: 30.09"   Gusts: NA
Location:  12.56°S, 41.39°W
Report Text: SBQV 240900Z 05006KT 9999 SCT007 SCT070 20/20 Q1019
Loading
Personal Weather Stations






























Interactive Weather Map New forecast layout! Learn more

10-Day Weather Forecast

Advertisements
Track Severe Weather on mobile